Time;durP1;ratioP1;P1;durP2;ratioP2;P2;SDS_P1;SDS_P2;PMS_P1;PMS_P2;Temp;Humidity;BMP_temperature;BMP_pressure;BME280_temperature;BME280_humidity;BME280_pressure;Samples;Min_cycle;Max_cycle;Signal;HPM_P1;HPM_P2
2023/12/26 00:00:13;;;;;;;0.10;0.10;;;;;;;;;;5021533;28;20478;-64
2023/12/26 00:02:38;;;;;;;0.33;0.33;;;;;;;;;;5022166;28;20044;-64
2023/12/26 00:05:05;;;;;;;0.10;0.10;;;;;;;;;;5026342;28;20022;-64
2023/12/26 00:07:30;;;;;;;0.30;0.30;;;;;;;;;;5021309;28;20021;-64
2023/12/26 00:09:55;;;;;;;0.30;0.30;;;;;;;;;;5027493;28;20025;-64
2023/12/26 00:12:23;;;;;;;0.30;0.30;;;;;;;;;;5027468;28;20029;-64
2023/12/26 00:14:48;;;;;;;1.37;0.60;;;;;;;;;;5025149;28;20024;-64
2023/12/26 00:17:13;;;;;;;0.10;0.10;;;;;;;;;;5024505;28;20691;-63
2023/12/26 00:19:39;;;;;;;0.10;0.10;;;;;;;;;;5024235;28;20029;-64
2023/12/26 00:22:04;;;;;;;0.47;0.27;;;;;;;;;;5023323;28;20104;-64
2023/12/26 00:24:29;;;;;;;0.13;0.13;;;;;;;;;;5021275;28;20136;-64
2023/12/26 00:26:54;;;;;;;0.10;0.10;;;;;;;;;;5020621;28;20064;-65
2023/12/26 00:29:20;;;;;;;0.20;0.20;;;;;;;;;;5023824;28;20033;-64
2023/12/26 00:31:45;;;;;;;1.70;0.50;;;;;;;;;;5019027;28;20030;-64
2023/12/26 00:34:10;;;;;;;0.97;0.60;;;;;;;;;;5023618;28;20021;-64
2023/12/26 00:36:35;;;;;;;1.20;0.30;;;;;;;;;;5021252;28;20021;-64
2023/12/26 00:39:01;;;;;;;0.10;0.10;;;;;;;;;;5018102;28;20033;-64
2023/12/26 00:41:26;;;;;;;0.33;0.20;;;;;;;;;;5025290;28;20091;-64
2023/12/26 00:43:51;;;;;;;0.30;0.30;;;;;;;;;;5021231;28;20128;-64
2023/12/26 00:46:17;;;;;;;0.20;0.20;;;;;;;;;;5010300;28;20064;-64
2023/12/26 00:48:43;;;;;;;0.30;0.30;;;;;;;;;;5020204;28;20087;-64
2023/12/26 00:51:08;;;;;;;0.17;0.17;;;;;;;;;;5021888;28;20013;-64
2023/12/26 00:53:34;;;;;;;0.10;0.10;;;;;;;;;;5021234;28;20014;-64
2023/12/26 00:55:59;;;;;;;0.20;0.20;;;;;;;;;;5021979;28;20022;-64
2023/12/26 00:58:24;;;;;;;0.13;0.13;;;;;;;;;;5016844;28;20037;-64
2023/12/26 01:00:50;;;;;;;0.53;0.30;;;;;;;;;;5016803;28;20435;-63
2023/12/26 01:03:21;;;;;;;0.10;0.10;;;;;;;;;;5023163;28;20034;-63
2023/12/26 01:05:47;;;;;;;0.23;0.20;;;;;;;;;;5022398;28;20407;-64
2023/12/26 01:08:12;;;;;;;0.20;0.20;;;;;;;;;;5026519;28;20026;-64
2023/12/26 01:10:37;;;;;;;0.10;0.10;;;;;;;;;;5016776;28;20530;-64
2023/12/26 01:13:03;;;;;;;0.10;0.10;;;;;;;;;;5023784;28;20025;-64
2023/12/26 01:15:29;;;;;;;0.10;0.10;;;;;;;;;;5020572;28;20050;-64
2023/12/26 01:17:54;;;;;;;0.10;0.10;;;;;;;;;;5024286;28;20092;-64
2023/12/26 01:20:19;;;;;;;0.10;0.10;;;;;;;;;;5020942;28;20018;-64
2023/12/26 01:22:44;;;;;;;0.10;0.10;;;;;;;;;;5022786;28;20045;-64
2023/12/26 01:25:10;;;;;;;0.30;0.30;;;;;;;;;;5024745;28;20509;-64
2023/12/26 01:27:35;;;;;;;0.10;0.10;;;;;;;;;;5023210;28;20024;-64
2023/12/26 01:30:02;;;;;;;0.10;0.10;;;;;;;;;;5019277;28;20040;-64
2023/12/26 01:32:27;;;;;;;0.10;0.10;;;;;;;;;;5022658;28;20018;-64
2023/12/26 01:34:53;;;;;;;0.10;0.10;;;;;;;;;;5018111;28;20029;-64
2023/12/26 01:37:18;;;;;;;0.27;0.27;;;;;;;;;;5021959;28;20033;-64
2023/12/26 01:39:43;;;;;;;0.20;0.20;;;;;;;;;;5019558;28;20026;-64
2023/12/26 01:42:09;;;;;;;0.10;0.10;;;;;;;;;;5017767;28;20462;-65
2023/12/26 01:44:34;;;;;;;0.10;0.10;;;;;;;;;;5023050;28;20297;-64
2023/12/26 01:47:00;;;;;;;1.17;0.60;;;;;;;;;;5022922;28;20483;-64
2023/12/26 01:49:25;;;;;;;0.10;0.10;;;;;;;;;;5021035;28;20034;-64
2023/12/26 01:51:51;;;;;;;1.57;0.77;;;;;;;;;;5021393;28;20543;-69
2023/12/26 01:54:17;;;;;;;0.20;0.20;;;;;;;;;;5017683;28;20025;-69
2023/12/26 01:56:42;;;;;;;0.10;0.10;;;;;;;;;;5018071;28;20490;-69
2023/12/26 01:59:08;;;;;;;0.17;0.17;;;;;;;;;;5022594;28;20041;-70
2023/12/26 02:01:34;;;;;;;0.13;0.13;;;;;;;;;;5023981;28;20079;-65
2023/12/26 02:03:59;;;;;;;0.10;0.10;;;;;;;;;;5018124;28;20033;-64
2023/12/26 02:06:24;;;;;;;0.00;0.00;;;;;;;;;;5018576;28;20033;-64
2023/12/26 02:08:50;;;;;;;0.10;0.10;;;;;;;;;;5015299;28;20026;-64
2023/12/26 02:11:15;;;;;;;0.10;0.10;;;;;;;;;;5026313;28;20501;-64
2023/12/26 02:13:40;;;;;;;0.37;0.20;;;;;;;;;;4997935;28;20028;-68
2023/12/26 02:16:15;;;;;;;0.10;0.10;;;;;;;;;;5025741;28;20018;-66
2023/12/26 02:18:41;;;;;;;0.10;0.10;;;;;;;;;;5020095;28;20032;-67
2023/12/26 02:21:06;;;;;;;0.10;0.10;;;;;;;;;;5020580;28;20385;-68
2023/12/26 02:23:33;;;;;;;0.10;0.10;;;;;;;;;;5018947;28;20441;-68
2023/12/26 02:26:01;;;;;;;0.10;0.10;;;;;;;;;;5021156;28;20497;-67
2023/12/26 02:28:26;;;;;;;0.10;0.10;;;;;;;;;;5024401;28;20034;-67
2023/12/26 02:30:51;;;;;;;0.10;0.10;;;;;;;;;;5018639;28;20025;-67
2023/12/26 02:33:17;;;;;;;0.10;0.10;;;;;;;;;;5020632;28;20022;-66
2023/12/26 02:35:43;;;;;;;0.10;0.10;;;;;;;;;;5021422;28;20030;-67
2023/12/26 02:38:08;;;;;;;0.10;0.10;;;;;;;;;;5018990;28;20105;-66
2023/12/26 02:40:33;;;;;;;0.10;0.10;;;;;;;;;;5017789;28;20094;-66
2023/12/26 02:42:59;;;;;;;0.10;0.10;;;;;;;;;;5021666;28;20096;-67
2023/12/26 02:45:24;;;;;;;0.10;0.10;;;;;;;;;;5018255;28;20033;-67
2023/12/26 02:47:49;;;;;;;0.10;0.10;;;;;;;;;;5026694;28;20041;-66
2023/12/26 02:50:14;;;;;;;0.10;0.10;;;;;;;;;;5017068;28;20034;-66
2023/12/26 02:52:42;;;;;;;0.00;0.00;;;;;;;;;;5022426;28;20022;-66
2023/12/26 02:55:08;;;;;;;0.10;0.10;;;;;;;;;;5022446;28;20100;-66
2023/12/26 02:57:33;;;;;;;0.10;0.10;;;;;;;;;;5017953;28;20390;-66
2023/12/26 02:59:58;;;;;;;0.10;0.10;;;;;;;;;;5022222;28;20030;-66
2023/12/26 03:02:23;;;;;;;0.10;0.10;;;;;;;;;;5019909;28;20040;-65
2023/12/26 03:04:49;;;;;;;0.10;0.10;;;;;;;;;;5018852;28;20056;-66
2023/12/26 03:07:14;;;;;;;5.30;0.63;;;;;;;;;;5020244;28;20038;-66
2023/12/26 03:09:40;;;;;;;0.20;0.20;;;;;;;;;;5022920;28;20390;-66
2023/12/26 03:12:05;;;;;;;0.10;0.10;;;;;;;;;;5022122;28;20017;-66
2023/12/26 03:14:30;;;;;;;0.10;0.10;;;;;;;;;;5024349;28;20367;-66
2023/12/26 03:16:56;;;;;;;0.10;0.10;;;;;;;;;;5018059;28;20452;-66
2023/12/26 03:19:21;;;;;;;0.10;0.10;;;;;;;;;;5024368;28;20029;-66
2023/12/26 03:21:46;;;;;;;0.10;0.10;;;;;;;;;;5028770;28;20030;-66
2023/12/26 03:24:11;;;;;;;0.10;0.10;;;;;;;;;;5023932;28;20072;-64
2023/12/26 03:26:37;;;;;;;0.10;0.10;;;;;;;;;;5027019;28;20064;-64
2023/12/26 03:29:02;;;;;;;0.10;0.10;;;;;;;;;;5020936;28;20158;-64
2023/12/26 03:31:27;;;;;;;0.10;0.10;;;;;;;;;;5028783;28;20021;-64
2023/12/26 03:33:55;;;;;;;0.10;0.10;;;;;;;;;;5012182;28;20028;-64
2023/12/26 03:36:20;;;;;;;0.20;0.20;;;;;;;;;;5022181;28;20025;-64
2023/12/26 03:38:45;;;;;;;0.10;0.10;;;;;;;;;;5024502;28;20052;-64
2023/12/26 03:41:11;;;;;;;0.67;0.50;;;;;;;;;;5025482;28;20025;-64
2023/12/26 03:43:36;;;;;;;0.47;0.43;;;;;;;;;;5026438;28;20083;-64
2023/12/26 03:46:02;;;;;;;0.10;0.10;;;;;;;;;;5020048;28;20071;-63
2023/12/26 03:48:27;;;;;;;0.50;0.50;;;;;;;;;;5018273;28;20032;-63
2023/12/26 03:50:53;;;;;;;1.03;0.40;;;;;;;;;;5022790;28;20021;-63
2023/12/26 03:53:19;;;;;;;0.43;0.43;;;;;;;;;;5017761;28;20025;-64
2023/12/26 03:55:46;;;;;;;0.10;0.10;;;;;;;;;;5022756;28;20128;-64
2023/12/26 03:58:11;;;;;;;0.10;0.10;;;;;;;;;;5020624;28;20017;-63
2023/12/26 04:00:37;;;;;;;0.20;0.20;;;;;;;;;;5023237;28;20492;-64
2023/12/26 04:03:02;;;;;;;0.10;0.10;;;;;;;;;;5024162;28;20022;-63
2023/12/26 04:05:27;;;;;;;0.10;0.10;;;;;;;;;;5023607;28;20025;-63
2023/12/26 04:07:52;;;;;;;0.50;0.50;;;;;;;;;;5026197;28;20049;-63
2023/12/26 04:10:18;;;;;;;0.10;0.10;;;;;;;;;;5022473;28;20044;-63
2023/12/26 04:12:44;;;;;;;0.10;0.10;;;;;;;;;;5022246;28;20425;-63
2023/12/26 04:15:09;;;;;;;0.10;0.10;;;;;;;;;;5022559;28;20022;-64
2023/12/26 04:17:34;;;;;;;0.10;0.10;;;;;;;;;;5023384;28;20394;-63
2023/12/26 04:20:00;;;;;;;0.40;0.40;;;;;;;;;;5026877;28;20032;-63
2023/12/26 04:22:25;;;;;;;0.10;0.10;;;;;;;;;;5025123;28;20098;-63
2023/12/26 04:24:50;;;;;;;0.30;0.30;;;;;;;;;;5025538;28;20052;-63
2023/12/26 04:27:16;;;;;;;0.20;0.20;;;;;;;;;;5017450;28;20072;-63
2023/12/26 04:29:41;;;;;;;0.20;0.20;;;;;;;;;;5021854;28;20068;-63
2023/12/26 04:32:06;;;;;;;0.10;0.10;;;;;;;;;;5015196;28;20034;-63
2023/12/26 04:34:32;;;;;;;0.10;0.10;;;;;;;;;;5026548;28;20040;-64
2023/12/26 04:36:57;;;;;;;21.23;1.03;;;;;;;;;;5017838;28;20025;-64
2023/12/26 04:39:23;;;;;;;0.10;0.10;;;;;;;;;;5023797;28;20033;-63
2023/12/26 04:41:48;;;;;;;0.10;0.10;;;;;;;;;;5023844;28;20025;-64
2023/12/26 04:44:13;;;;;;;2.83;0.70;;;;;;;;;;5020740;28;20052;-63
2023/12/26 04:46:39;;;;;;;3.67;0.80;;;;;;;;;;5019812;28;20029;-63
2023/12/26 04:49:04;;;;;;;4.20;0.93;;;;;;;;;;5022104;28;20804;-64
2023/12/26 04:51:30;;;;;;;2.30;0.70;;;;;;;;;;5022250;28;20021;-63
2023/12/26 04:53:56;;;;;;;4.13;0.80;;;;;;;;;;5022716;28;20028;-64
2023/12/26 04:56:21;;;;;;;13.77;1.60;;;;;;;;;;5018183;28;20108;-63
2023/12/26 04:58:47;;;;;;;3.90;1.03;;;;;;;;;;5021904;28;20025;-63
2023/12/26 05:01:13;;;;;;;2.57;0.70;;;;;;;;;;5022603;28;20021;-64
2023/12/26 05:03:38;;;;;;;2.50;0.60;;;;;;;;;;5020130;28;20478;-63
2023/12/26 05:06:04;;;;;;;3.70;0.70;;;;;;;;;;5023606;28;20025;-63
2023/12/26 05:08:29;;;;;;;1.93;0.80;;;;;;;;;;5022566;28;20466;-63
2023/12/26 05:10:55;;;;;;;2.50;1.00;;;;;;;;;;5021880;28;20087;-63
2023/12/26 05:13:20;;;;;;;2.73;0.70;;;;;;;;;;5027159;28;20014;-64
2023/12/26 05:15:46;;;;;;;5.90;1.00;;;;;;;;;;5022530;28;20022;-62
2023/12/26 05:18:11;;;;;;;1.70;0.60;;;;;;;;;;5023781;28;20040;-63
2023/12/26 05:20:38;;;;;;;6.40;0.77;;;;;;;;;;5024351;28;20481;-62
2023/12/26 05:23:03;;;;;;;4.53;0.70;;;;;;;;;;5024863;28;20026;-63
2023/12/26 05:25:28;;;;;;;3.90;0.87;;;;;;;;;;5023745;28;20068;-62
2023/12/26 05:27:54;;;;;;;5.00;1.23;;;;;;;;;;5023836;28;20030;-63
2023/12/26 05:30:19;;;;;;;5.17;1.13;;;;;;;;;;5024975;28;20033;-63
2023/12/26 05:32:44;;;;;;;8.23;0.87;;;;;;;;;;5025513;28;20026;-62
2023/12/26 05:35:10;;;;;;;7.43;1.10;;;;;;;;;;5019162;28;20101;-63
2023/12/26 05:37:35;;;;;;;4.23;0.80;;;;;;;;;;5022717;28;20038;-63
2023/12/26 05:40:00;;;;;;;8.53;0.90;;;;;;;;;;5019612;28;20030;-62
2023/12/26 05:42:26;;;;;;;9.63;1.53;;;;;;;;;;5020775;28;20037;-63
2023/12/26 05:44:51;;;;;;;9.03;1.00;;;;;;;;;;5024380;28;20394;-63
2023/12/26 05:47:17;;;;;;;5.37;1.33;;;;;;;;;;5019823;28;20500;-62
2023/12/26 05:49:42;;;;;;;6.00;1.10;;;;;;;;;;5026717;28;20025;-63
2023/12/26 05:52:08;;;;;;;5.73;1.00;;;;;;;;;;5022119;28;20014;-63
2023/12/26 05:54:33;;;;;;;8.67;1.13;;;;;;;;;;5019001;28;20690;-63
2023/12/26 05:56:58;;;;;;;8.30;0.93;;;;;;;;;;5018847;28;20029;-63
2023/12/26 05:59:24;;;;;;;10.70;1.50;;;;;;;;;;5019714;28;20021;-63
2023/12/26 06:01:49;;;;;;;5.17;1.17;;;;;;;;;;5022831;28;20034;-63
2023/12/26 06:04:14;;;;;;;8.73;1.47;;;;;;;;;;5021197;28;20434;-62
2023/12/26 06:06:40;;;;;;;7.53;1.23;;;;;;;;;;5016872;28;20022;-63
2023/12/26 06:09:05;;;;;;;8.47;1.50;;;;;;;;;;5022659;28;20573;-63
2023/12/26 06:11:30;;;;;;;2.90;0.60;;;;;;;;;;5019332;28;20030;-63
2023/12/26 06:13:56;;;;;;;12.23;1.77;;;;;;;;;;5019924;28;20064;-63
2023/12/26 06:16:21;;;;;;;4.53;0.90;;;;;;;;;;5023008;28;20029;-63
2023/12/26 06:18:46;;;;;;;11.13;1.63;;;;;;;;;;5018813;28;20418;-63
2023/12/26 06:21:11;;;;;;;6.80;1.20;;;;;;;;;;5023759;28;20025;-63
2023/12/26 06:23:37;;;;;;;10.30;1.40;;;;;;;;;;5023276;28;20037;-63
2023/12/26 06:26:03;;;;;;;11.60;1.57;;;;;;;;;;5020257;28;20045;-63
2023/12/26 06:28:28;;;;;;;6.83;0.90;;;;;;;;;;5024319;28;20038;-62
2023/12/26 06:30:53;;;;;;;6.93;1.00;;;;;;;;;;5022044;28;20037;-63
2023/12/26 06:33:19;;;;;;;7.67;1.20;;;;;;;;;;5020298;28;20679;-63
2023/12/26 06:35:44;;;;;;;5.83;0.90;;;;;;;;;;5023055;28;20024;-63
2023/12/26 06:38:12;;;;;;;7.77;1.13;;;;;;;;;;5019984;28;20045;-63
2023/12/26 06:40:40;;;;;;;6.77;1.40;;;;;;;;;;5021837;28;20026;-63
2023/12/26 06:43:06;;;;;;;7.33;1.33;;;;;;;;;;5020937;28;20105;-62
2023/12/26 06:45:31;;;;;;;7.03;1.20;;;;;;;;;;5024221;28;20060;-63
2023/12/26 06:47:57;;;;;;;5.33;1.10;;;;;;;;;;5026217;28;20558;-63
2023/12/26 06:50:22;;;;;;;5.33;1.00;;;;;;;;;;5018975;28;20026;-63
2023/12/26 06:52:47;;;;;;;6.17;1.30;;;;;;;;;;5024086;28;20031;-63
2023/12/26 06:55:12;;;;;;;11.13;1.20;;;;;;;;;;5024148;28;20426;-63
2023/12/26 06:57:38;;;;;;;7.23;1.23;;;;;;;;;;5027507;28;20036;-63
2023/12/26 07:00:05;;;;;;;9.03;1.60;;;;;;;;;;5024514;28;20065;-63
2023/12/26 07:02:32;;;;;;;4.67;0.90;;;;;;;;;;5023658;28;20017;-63
2023/12/26 07:04:57;;;;;;;5.40;1.00;;;;;;;;;;5021226;28;20138;-62
2023/12/26 07:07:22;;;;;;;6.70;1.23;;;;;;;;;;5022100;28;20101;-63
2023/12/26 07:09:48;;;;;;;5.50;1.07;;;;;;;;;;5025810;28;20105;-63
2023/12/26 07:12:13;;;;;;;4.77;1.00;;;;;;;;;;5021926;28;20017;-63
2023/12/26 07:14:38;;;;;;;7.43;1.10;;;;;;;;;;5026706;28;20033;-63
2023/12/26 07:17:04;;;;;;;11.43;1.60;;;;;;;;;;5022076;28;20028;-63
2023/12/26 07:19:29;;;;;;;7.80;1.60;;;;;;;;;;5029899;28;20021;-63
2023/12/26 07:21:54;;;;;;;5.67;1.30;;;;;;;;;;5024099;28;20393;-63
2023/12/26 07:24:20;;;;;;;4.50;1.07;;;;;;;;;;5028559;28;20079;-63
2023/12/26 07:26:46;;;;;;;5.13;1.20;;;;;;;;;;5028957;28;20053;-63
2023/12/26 07:29:11;;;;;;;3.50;0.83;;;;;;;;;;5027615;28;20141;-62
2023/12/26 07:31:36;;;;;;;8.53;1.17;;;;;;;;;;5027997;28;20049;-63
2023/12/26 07:34:04;;;;;;;10.67;1.60;;;;;;;;;;5026191;28;20071;-63
2023/12/26 07:36:29;;;;;;;7.97;1.33;;;;;;;;;;5025638;28;20032;-63
2023/12/26 07:38:54;;;;;;;4.47;1.10;;;;;;;;;;5025587;28;20037;-63
2023/12/26 07:41:20;;;;;;;5.97;1.10;;;;;;;;;;5028833;28;20029;-62
2023/12/26 07:43:47;;;;;;;6.53;0.90;;;;;;;;;;5026916;28;20100;-63
2023/12/26 07:46:13;;;;;;;9.03;1.17;;;;;;;;;;5025340;28;20053;-62
2023/12/26 07:48:38;;;;;;;7.87;1.40;;;;;;;;;;5020833;28;20018;-63
2023/12/26 07:51:03;;;;;;;5.73;1.03;;;;;;;;;;5020599;28;20030;-62
2023/12/26 07:53:28;;;;;;;4.77;0.90;;;;;;;;;;5027323;28;20018;-62
2023/12/26 07:55:54;;;;;;;6.53;1.00;;;;;;;;;;5025626;28;20028;-62
2023/12/26 07:58:19;;;;;;;8.47;1.00;;;;;;;;;;5021378;28;20471;-62
2023/12/26 08:00:45;;;;;;;3.87;0.80;;;;;;;;;;5023841;28;20029;-62
2023/12/26 08:03:15;;;;;;;5.47;1.07;;;;;;;;;;5017367;28;20360;-63
2023/12/26 08:05:42;;;;;;;8.37;1.30;;;;;;;;;;5019790;28;20109;-62
2023/12/26 08:08:07;;;;;;;4.77;1.10;;;;;;;;;;5019348;28;20041;-62
2023/12/26 08:10:33;;;;;;;7.40;1.30;;;;;;;;;;5019843;28;20033;-63
2023/12/26 08:12:58;;;;;;;4.20;0.80;;;;;;;;;;5020570;28;20038;-63
2023/12/26 08:15:23;;;;;;;4.87;2.03;;;;;;;;;;5029605;28;20478;-63
2023/12/26 08:17:51;;;;;;;6.77;1.13;;;;;;;;;;5025595;28;20018;-63
2023/12/26 08:20:16;;;;;;;6.30;1.00;;;;;;;;;;5025818;28;20029;-62
2023/12/26 08:22:41;;;;;;;4.23;1.07;;;;;;;;;;5022118;28;20026;-63
2023/12/26 08:25:06;;;;;;;6.43;1.20;;;;;;;;;;5025500;28;20063;-63
2023/12/26 08:27:32;;;;;;;6.70;1.43;;;;;;;;;;5027870;28;20026;-63
2023/12/26 08:29:58;;;;;;;13.47;1.40;;;;;;;;;;5022807;28;20091;-63
2023/12/26 08:32:23;;;;;;;5.90;1.40;;;;;;;;;;5019659;28;20029;-63
2023/12/26 08:34:49;;;;;;;6.97;1.70;;;;;;;;;;5022678;28;20021;-62
2023/12/26 08:37:14;;;;;;;6.07;1.13;;;;;;;;;;5024300;28;20017;-62
2023/12/26 08:39:39;;;;;;;8.30;1.27;;;;;;;;;;5023955;28;20068;-62
2023/12/26 08:42:05;;;;;;;7.13;1.37;;;;;;;;;;5025711;28;20056;-62
2023/12/26 08:44:30;;;;;;;7.07;1.10;;;;;;;;;;5022416;28;20048;-62
2023/12/26 08:46:56;;;;;;;15.00;2.17;;;;;;;;;;5027732;28;20031;-62
2023/12/26 08:49:21;;;;;;;3.97;1.07;;;;;;;;;;5024413;28;20033;-62
2023/12/26 08:51:46;;;;;;;11.63;2.07;;;;;;;;;;5026525;28;20575;-62
2023/12/26 08:54:12;;;;;;;9.40;1.40;;;;;;;;;;5022417;28;20037;-62
2023/12/26 08:56:39;;;;;;;12.10;1.20;;;;;;;;;;5021657;28;20026;-60
2023/12/26 08:59:04;;;;;;;7.87;1.20;;;;;;;;;;5020944;28;20022;-62
2023/12/26 09:01:29;;;;;;;3.50;1.00;;;;;;;;;;5028627;28;20033;-62
2023/12/26 09:03:55;;;;;;;8.63;1.57;;;;;;;;;;5023051;28;20037;-62
2023/12/26 09:06:21;;;;;;;6.63;1.63;;;;;;;;;;5016527;28;20057;-61
2023/12/26 09:08:46;;;;;;;11.30;1.77;;;;;;;;;;5016357;28;20481;-62
2023/12/26 09:11:12;;;;;;;6.47;1.20;;;;;;;;;;5022781;28;20020;-62
2023/12/26 09:13:37;;;;;;;7.10;1.17;;;;;;;;;;5022423;28;20113;-62
2023/12/26 09:16:02;;;;;;;5.73;1.27;;;;;;;;;;5021081;28;20097;-62
2023/12/26 09:18:28;;;;;;;7.53;1.30;;;;;;;;;;5017130;28;20057;-62
2023/12/26 09:20:54;;;;;;;5.97;1.40;;;;;;;;;;5016814;28;20387;-63
2023/12/26 09:23:20;;;;;;;7.73;1.30;;;;;;;;;;5026749;28;20422;-63
2023/12/26 09:25:45;;;;;;;7.73;1.17;;;;;;;;;;5023508;28;20049;-63
2023/12/26 09:28:10;;;;;;;3.47;0.70;;;;;;;;;;5018874;28;20046;-63
2023/12/26 09:30:36;;;;;;;6.17;1.37;;;;;;;;;;5027018;28;20112;-63
2023/12/26 09:33:01;;;;;;;5.07;1.00;;;;;;;;;;5022805;28;20084;-64
2023/12/26 09:35:26;;;;;;;8.53;1.80;;;;;;;;;;5024076;28;20022;-64
2023/12/26 09:37:52;;;;;;;6.73;1.70;;;;;;;;;;5019419;28;20025;-64
2023/12/26 09:40:18;;;;;;;10.87;1.60;;;;;;;;;;5020836;28;20033;-64
2023/12/26 09:42:43;;;;;;;5.93;1.17;;;;;;;;;;5023810;28;20029;-64
2023/12/26 09:45:10;;;;;;;14.43;1.63;;;;;;;;;;5022549;28;20033;-64
2023/12/26 09:47:36;;;;;;;9.43;1.40;;;;;;;;;;5023108;28;20033;-64
2023/12/26 09:50:01;;;;;;;6.27;0.93;;;;;;;;;;5022360;28;20117;-64
2023/12/26 09:52:29;;;;;;;4.33;0.97;;;;;;;;;;5020534;28;20109;-64
2023/12/26 09:54:55;;;;;;;6.13;1.57;;;;;;;;;;5021689;28;20501;-64
2023/12/26 09:57:21;;;;;;;6.67;1.17;;;;;;;;;;5023333;28;20025;-64
2023/12/26 09:59:47;;;;;;;9.53;1.80;;;;;;;;;;5025914;28;20030;-65
2023/12/26 10:02:13;;;;;;;8.57;1.37;;;;;;;;;;5023347;28;20399;-64
2023/12/26 10:04:39;;;;;;;7.73;1.30;;;;;;;;;;5022346;28;20037;-64
2023/12/26 10:07:04;;;;;;;8.87;2.13;;;;;;;;;;5019320;28;20034;-64
2023/12/26 10:09:29;;;;;;;7.07;1.57;;;;;;;;;;5024145;28;20021;-64
2023/12/26 10:11:55;;;;;;;8.23;1.40;;;;;;;;;;5026101;28;20427;-64
2023/12/26 10:14:29;;;;;;;9.07;1.53;;;;;;;;;;5023021;28;20040;-64
2023/12/26 10:16:58;;;;;;;8.70;1.50;;;;;;;;;;5017785;28;20044;-64
2023/12/26 10:19:23;;;;;;;10.73;1.53;;;;;;;;;;5019219;28;20036;-64
2023/12/26 10:21:50;;;;;;;4.63;1.03;;;;;;;;;;5021760;28;20029;-63
2023/12/26 10:24:16;;;;;;;7.73;1.57;;;;;;;;;;5018555;28;20041;-64
2023/12/26 10:26:41;;;;;;;11.33;1.67;;;;;;;;;;5015220;28;20530;-63
2023/12/26 10:29:10;;;;;;;5.90;1.03;;;;;;;;;;5017432;28;20172;-63
2023/12/26 10:31:35;;;;;;;9.37;1.70;;;;;;;;;;5025601;28;20037;-62
2023/12/26 10:34:17;;;;;;;9.83;1.53;;;;;;;;;;5020106;28;20022;-62
2023/12/26 10:36:46;;;;;;;8.10;1.30;;;;;;;;;;5018546;28;20026;-62
2023/12/26 10:39:11;;;;;;;9.80;1.77;;;;;;;;;;5017027;28;20050;-63
2023/12/26 10:41:43;;;;;;;7.43;1.40;;;;;;;;;;5024484;28;20171;-63
2023/12/26 10:44:09;;;;;;;9.60;1.60;;;;;;;;;;5022199;28;20033;-62
2023/12/26 10:46:35;;;;;;;8.40;1.27;;;;;;;;;;5019661;28;20536;-62
2023/12/26 10:49:04;;;;;;;4.33;1.00;;;;;;;;;;5023193;28;20026;-63
2023/12/26 10:51:30;;;;;;;5.67;1.40;;;;;;;;;;5024210;28;20030;-63
2023/12/26 10:54:13;;;;;;;5.10;1.30;;;;;;;;;;5021928;28;20025;-62
2023/12/26 10:56:39;;;;;;;6.63;1.20;;;;;;;;;;5020403;28;20401;-63
2023/12/26 10:59:04;;;;;;;6.60;1.30;;;;;;;;;;5021651;28;20026;-63
2023/12/26 13:52:28;;;;;;;12.40;1.90;;;;;;;;;;4976887;28;20030;-61
2023/12/26 13:55:11;;;;;;;5.67;0.80;;;;;;;;;;4973898;28;20019;-62
2023/12/26 13:57:55;;;;;;;7.63;1.80;;;;;;;;;;4981409;28;20088;-61
2023/12/26 14:00:39;;;;;;;7.57;1.60;;;;;;;;;;4983251;28;20523;-61
2023/12/26 14:03:23;;;;;;;3.87;0.90;;;;;;;;;;4982970;28;20066;-61
2023/12/26 14:06:07;;;;;;;5.60;1.30;;;;;;;;;;4978876;28;20041;-61
2023/12/26 14:08:51;;;;;;;8.47;1.37;;;;;;;;;;4985739;28;20034;-61
2023/12/26 14:11:35;;;;;;;6.97;1.13;;;;;;;;;;4981577;28;20105;-61
2023/12/26 14:14:20;;;;;;;7.33;1.30;;;;;;;;;;4981680;28;20031;-61
2023/12/26 14:17:04;;;;;;;5.03;1.00;;;;;;;;;;4981165;28;20037;-61
2023/12/26 14:19:47;;;;;;;5.87;1.10;;;;;;;;;;4983422;28;20030;-61
2023/12/26 14:22:31;;;;;;;4.13;1.30;;;;;;;;;;4981894;28;20502;-61
2023/12/26 14:25:15;;;;;;;6.07;1.20;;;;;;;;;;4983707;28;20031;-62
2023/12/26 14:27:59;;;;;;;9.30;1.57;;;;;;;;;;5025326;28;20033;-61
2023/12/26 14:30:43;;;;;;;3.20;1.10;;;;;;;;;;5021176;28;20040;-60
2023/12/26 14:33:26;;;;;;;4.20;1.10;;;;;;;;;;5023008;28;20048;-61
2023/12/26 14:36:10;;;;;;;8.17;1.30;;;;;;;;;;5024115;28;20044;-61
2023/12/26 14:38:54;;;;;;;9.17;1.37;;;;;;;;;;5022514;28;20094;-61
2023/12/26 14:41:38;;;;;;;6.13;1.53;;;;;;;;;;5022234;28;20029;-61
2023/12/26 14:44:22;;;;;;;6.13;1.17;;;;;;;;;;5022485;28;20412;-61
2023/12/26 14:47:06;;;;;;;6.90;0.90;;;;;;;;;;5020091;28;20061;-61
2023/12/26 14:49:49;;;;;;;5.83;1.07;;;;;;;;;;5019429;28;20398;-61
2023/12/26 14:52:33;;;;;;;12.83;1.47;;;;;;;;;;5014595;28;20029;-61
2023/12/26 14:55:17;;;;;;;6.97;1.40;;;;;;;;;;5016424;28;20378;-61
2023/12/26 14:58:01;;;;;;;10.23;2.07;;;;;;;;;;5026214;28;20109;-61
2023/12/26 15:00:44;;;;;;;7.93;1.20;;;;;;;;;;5021597;28;20033;-61
2023/12/26 15:03:10;;;;;;;6.37;1.30;;;;;;;;;;5017088;28;20083;-61
2023/12/26 15:05:35;;;;;;;5.60;1.47;;;;;;;;;;5017236;28;20029;-61
2023/12/26 15:08:01;;;;;;;9.87;1.30;;;;;;;;;;5018579;28;20463;-61
2023/12/26 15:10:26;;;;;;;10.47;1.80;;;;;;;;;;5021979;28;20095;-61
2023/12/26 15:12:52;;;;;;;11.27;1.40;;;;;;;;;;5024782;28;20071;-61
2023/12/26 15:15:17;;;;;;;10.13;2.00;;;;;;;;;;5025704;28;20033;-61
2023/12/26 15:17:43;;;;;;;10.53;1.73;;;;;;;;;;5029566;28;20078;-61
2023/12/26 15:20:09;;;;;;;15.17;1.87;;;;;;;;;;5026753;28;20045;-61
2023/12/26 15:22:34;;;;;;;10.90;1.50;;;;;;;;;;5025051;28;20020;-61
2023/12/26 15:24:59;;;;;;;11.93;2.13;;;;;;;;;;5024588;28;20053;-61
2023/12/26 15:27:25;;;;;;;10.63;1.63;;;;;;;;;;5027805;28;20045;-60
2023/12/26 15:29:50;;;;;;;7.00;1.80;;;;;;;;;;5027231;28;20026;-61
2023/12/26 15:32:15;;;;;;;5.60;1.13;;;;;;;;;;5024193;28;20034;-61
2023/12/26 15:34:41;;;;;;;6.50;1.10;;;;;;;;;;5022445;28;20028;-61
2023/12/26 15:37:06;;;;;;;8.57;1.20;;;;;;;;;;5031797;28;20017;-61
2023/12/26 15:39:31;;;;;;;7.10;1.50;;;;;;;;;;5026547;28;20033;-61
2023/12/26 15:41:57;;;;;;;7.60;1.57;;;;;;;;;;5026375;28;20049;-62
2023/12/26 15:44:22;;;;;;;5.43;1.10;;;;;;;;;;5027812;28;20030;-61
2023/12/26 15:46:47;;;;;;;5.63;1.10;;;;;;;;;;5025518;28;20037;-61
2023/12/26 15:49:12;;;;;;;7.20;1.03;;;;;;;;;;5021161;28;20486;-61
2023/12/26 15:51:40;;;;;;;6.23;1.50;;;;;;;;;;5027845;28;20014;-61
2023/12/26 15:54:06;;;;;;;3.10;0.80;;;;;;;;;;5028854;28;20034;-61
2023/12/26 15:56:31;;;;;;;3.60;0.60;;;;;;;;;;5021710;28;20087;-61
2023/12/26 15:58:56;;;;;;;5.63;0.80;;;;;;;;;;5023320;28;20032;-61
2023/12/26 16:01:22;;;;;;;3.80;0.70;;;;;;;;;;5023641;28;20075;-61
2023/12/26 16:03:51;;;;;;;3.93;0.80;;;;;;;;;;5030534;28;20029;-61
2023/12/26 16:06:20;;;;;;;4.33;0.90;;;;;;;;;;5022431;28;20116;-61
2023/12/26 16:08:45;;;;;;;1.83;0.57;;;;;;;;;;5016375;28;20052;-61
2023/12/26 16:11:11;;;;;;;5.97;0.90;;;;;;;;;;5019367;28;20021;-61
2023/12/26 16:13:36;;;;;;;4.57;1.00;;;;;;;;;;5021092;28;20040;-62
2023/12/26 16:16:01;;;;;;;4.40;0.90;;;;;;;;;;5013669;28;20462;-61
2023/12/26 16:18:26;;;;;;;5.07;0.70;;;;;;;;;;5019524;28;20021;-62
2023/12/26 16:20:52;;;;;;;3.93;0.60;;;;;;;;;;5017341;28;20021;-61
2023/12/26 16:23:17;;;;;;;2.20;0.50;;;;;;;;;;5022985;28;20033;-61
2023/12/26 16:25:42;;;;;;;4.63;0.77;;;;;;;;;;5032970;28;20049;-61
2023/12/26 16:28:08;;;;;;;4.03;0.67;;;;;;;;;;5021069;28;21069;-62
2023/12/26 16:30:33;;;;;;;4.73;0.63;;;;;;;;;;5025400;28;20041;-61
2023/12/26 16:33:02;;;;;;;5.63;0.77;;;;;;;;;;5025532;28;20026;-61
2023/12/26 16:35:27;;;;;;;3.73;0.60;;;;;;;;;;5022625;28;20026;-61
2023/12/26 16:37:53;;;;;;;5.10;1.30;;;;;;;;;;5026845;28;20029;-61
2023/12/26 16:40:18;;;;;;;6.10;0.80;;;;;;;;;;5027847;28;20068;-61
2023/12/26 16:42:43;;;;;;;2.10;0.77;;;;;;;;;;5023024;28;20029;-62
2023/12/26 16:45:08;;;;;;;3.90;0.60;;;;;;;;;;5027122;28;20032;-62
2023/12/26 16:47:36;;;;;;;3.40;0.90;;;;;;;;;;5023489;28;20371;-61
2023/12/26 16:50:01;;;;;;;4.10;0.60;;;;;;;;;;5024587;28;20628;-61
2023/12/26 16:52:26;;;;;;;5.37;0.70;;;;;;;;;;5024243;28;20028;-61
2023/12/26 16:54:54;;;;;;;3.03;0.60;;;;;;;;;;5029660;28;20026;-61
2023/12/26 16:57:19;;;;;;;2.07;0.60;;;;;;;;;;5024161;28;20025;-62
2023/12/26 16:59:45;;;;;;;6.23;0.90;;;;;;;;;;5024442;28;20470;-61
2023/12/26 17:02:11;;;;;;;2.73;0.67;;;;;;;;;;5026543;28;20117;-61
2023/12/26 17:04:37;;;;;;;6.43;1.33;;;;;;;;;;5023527;28;20433;-61
2023/12/26 17:07:03;;;;;;;5.70;1.10;;;;;;;;;;5021503;28;20049;-62
2023/12/26 17:09:28;;;;;;;4.97;0.80;;;;;;;;;;5018242;28;20050;-61
2023/12/26 17:11:53;;;;;;;6.43;1.00;;;;;;;;;;5027050;28;20025;-61
2023/12/26 17:14:18;;;;;;;3.03;0.70;;;;;;;;;;5019542;28;20034;-61
2023/12/26 17:16:44;;;;;;;2.93;0.60;;;;;;;;;;5020003;28;20025;-61
2023/12/26 17:19:09;;;;;;;5.07;0.63;;;;;;;;;;5017767;28;20029;-62
2023/12/26 17:21:41;;;;;;;2.80;0.70;;;;;;;;;;5023286;28;20025;-61
2023/12/26 17:24:06;;;;;;;;;;;;;;;;;;5022357;28;20030;-61
2023/12/26 17:26:31;;;;;;;6.90;0.85;;;;;;;;;;5024613;28;19917;-61
2023/12/26 17:28:56;;;;;;;6.00;0.90;;;;;;;;;;5020592;28;20173;-61
2023/12/26 17:31:22;;;;;;;3.50;0.90;;;;;;;;;;5014774;28;20494;-61